Time;durP1;ratioP1;P1;durP2;ratioP2;P2;SDS_P1;SDS_P2;PMS_P1;PMS_P2;Temp;Humidity;BMP_temperature;BMP_pressure;BME280_temperature;BME280_humidity;BME280_pressure;Samples;Min_cycle;Max_cycle;Signal;HPM_P1;HPM_P2
2022/11/17 00:00:19;;;;;;;38.92;37.42;;;7.90;93.20;;;;;;4845812;29;20043;-78
2022/11/17 00:02:46;;;;;;;38.63;37.13;;;7.90;93.20;;;;;;4878705;29;20037;-79
2022/11/17 00:05:12;;;;;;;35.60;34.25;;;7.90;93.20;;;;;;4842252;29;20542;-79
2022/11/17 00:07:38;;;;;;;40.45;38.95;;;8.00;93.30;;;;;;4857547;29;20041;-79
2022/11/17 00:10:04;;;;;;;36.53;35.13;;;8.00;93.30;;;;;;4874293;29;20108;-76
2022/11/17 00:15:14;;;;;;;35.88;34.50;;;8.10;93.30;;;;;;4874375;29;19919;-75
2022/11/17 00:17:40;;;;;;;35.45;34.15;;;8.20;93.20;;;;;;4873856;29;20037;-75
2022/11/17 00:22:52;;;;;;;39.93;38.43;;;8.20;93.20;;;;;;4874124;29;20142;-75
2022/11/17 00:25:18;;;;;;;40.38;38.88;;;8.20;93.10;;;;;;4872657;29;20112;-76
2022/11/17 00:27:44;;;;;;;41.20;39.65;;;8.10;93.00;;;;;;4872568;29;20048;-75
2022/11/17 00:34:03;;;;;;;37.50;36.10;;;8.10;93.10;;;;;;4857149;29;20029;-76
2022/11/17 00:35:52;;;;;;;39.92;38.42;;;8.00;93.10;;;;;;4873928;29;20044;-75
2022/11/17 00:38:18;;;;;;;40.60;39.10;;;8.00;93.10;;;;;;4856856;29;20048;-75
2022/11/17 00:40:44;;;;;;;39.50;38.00;;;7.90;93.00;;;;;;4857068;29;20120;-78
2022/11/17 00:43:10;;;;;;;41.70;40.10;;;7.90;93.30;;;;;;4857194;29;20199;-78
2022/11/17 00:45:36;;;;;;;43.20;41.60;;;7.90;93.10;;;;;;4873714;29;20149;-78
2022/11/17 00:48:02;;;;;;;38.72;37.28;;;7.80;93.00;;;;;;4873457;29;20057;-78
2022/11/17 00:50:28;;;;;;;39.42;37.92;;;7.70;93.00;;;;;;4856836;29;20178;-78
2022/11/17 00:52:54;;;;;;;41.28;39.75;;;7.70;93.00;;;;;;4856990;29;20370;-80
2022/11/17 00:55:20;;;;;;;40.60;39.10;;;7.60;93.00;;;;;;4872544;29;20093;-79
2022/11/17 00:57:45;;;;;;;42.97;41.38;;;7.50;93.00;;;;;;4873460;29;20064;-79
2022/11/17 01:00:11;;;;;;;43.05;41.45;;;7.50;93.00;;;;;;4872494;29;20068;-79
2022/11/17 01:02:37;;;;;;;44.20;42.60;;;7.50;93.10;;;;;;4872247;29;20054;-79
2022/11/17 01:05:03;;;;;;;40.63;39.13;;;7.40;93.00;;;;;;4873702;29;20430;-79
2022/11/17 01:07:29;;;;;;;43.92;42.33;;;7.40;93.00;;;;;;4873490;29;20103;-79
2022/11/17 01:09:55;;;;;;;43.70;42.10;;;7.30;93.00;;;;;;4856922;29;20044;-80
2022/11/17 01:12:20;;;;;;;41.78;40.17;;;7.30;93.00;;;;;;4873435;29;20157;-75
2022/11/17 01:14:46;;;;;;;41.70;40.13;;;7.20;93.00;;;;;;4841517;29;20047;-75
2022/11/17 01:17:12;;;;;;;42.58;40.97;;;7.20;93.00;;;;;;4873434;29;20033;-79
2022/11/17 01:19:37;;;;;;;44.67;43.00;;;7.20;93.00;;;;;;4841450;29;20033;-79
2022/11/17 01:22:03;;;;;;;43.35;41.75;;;7.10;92.90;;;;;;4856920;29;20084;-79
2022/11/17 01:24:29;;;;;;;43.20;41.60;;;7.10;92.90;;;;;;4857175;29;20045;-79
2022/11/17 01:26:55;;;;;;;43.45;41.85;;;7.10;93.00;;;;;;4856827;29;20029;-78
2022/11/17 01:29:20;;;;;;;40.00;38.50;;;7.10;93.00;;;;;;4856610;29;20461;-77
2022/11/17 01:31:50;;;;;;;41.38;39.88;;;7.10;93.20;;;;;;4859845;29;20402;-78
2022/11/17 01:34:16;;;;;;;37.95;36.55;;;7.10;93.00;;;;;;4862735;29;20433;-77
2022/11/17 01:39:29;;;;;;;41.00;39.50;;;7.10;93.00;;;;;;4876811;29;20513;-78
2022/11/17 01:41:55;;;;;;;39.40;37.90;;;7.10;93.00;;;;;;4876466;29;20068;-78
2022/11/17 01:44:51;;;;;;;38.35;36.95;;;7.00;92.90;;;;;;4859628;29;20029;-77
2022/11/17 01:47:24;;;;;;;37.08;35.67;;;7.00;93.00;;;;;;4876546;29;20037;-78
2022/11/17 01:50:11;;;;;;;34.78;33.47;;;7.10;93.10;;;;;;4876426;29;20041;-78
2022/11/17 01:52:39;;;;;;;35.70;34.40;;;7.10;93.20;;;;;;4862906;29;20041;-78
2022/11/17 01:55:08;;;;;;;34.30;33.00;;;7.10;93.20;;;;;;4876087;29;20370;-77
2022/11/17 01:57:42;;;;;;;37.17;35.78;;;7.20;93.20;;;;;;4876046;29;20171;-78
2022/11/17 02:00:09;;;;;;;36.72;35.33;;;7.20;93.10;;;;;;4876186;29;20443;-77
2022/11/17 02:02:37;;;;;;;36.92;35.53;;;7.20;93.00;;;;;;4843942;29;20036;-77
2022/11/17 02:05:20;;;;;;;37.80;36.40;;;7.20;93.00;;;;;;4876124;29;20104;-77
2022/11/17 02:07:49;;;;;;;38.40;36.92;;;7.10;92.90;;;;;;4859130;29;20043;-78
2022/11/17 02:10:15;;;;;;;40.05;38.55;;;7.10;92.90;;;;;;4859279;29;20040;-78
2022/11/17 02:12:42;;;;;;;39.38;37.88;;;7.00;92.80;;;;;;4870709;29;20083;-78
2022/11/17 02:15:08;;;;;;;38.40;37.00;;;6.90;92.80;;;;;;4859066;29;20195;-77
2022/11/17 02:17:37;;;;;;;39.92;38.42;;;6.80;92.80;;;;;;4843696;29;20035;-78
2022/11/17 02:20:47;;;;;;;35.67;34.38;;;6.70;92.80;;;;;;4859033;29;20033;-78
2022/11/17 02:23:31;;;;;;;37.28;35.88;;;6.60;92.80;;;;;;4875751;29;20052;-78
2022/11/17 02:26:28;;;;;;;37.72;36.33;;;6.50;92.90;;;;;;4859122;29;20521;-77
2022/11/17 02:29:52;;;;;;;39.60;38.10;;;6.40;92.90;;;;;;4858785;29;20509;-78
2022/11/17 02:33:07;;;;;;;37.70;36.20;;;6.40;92.90;;;;;;4802794;29;20475;-77
2022/11/17 02:35:57;;;;;;;34.78;33.47;;;6.30;92.90;;;;;;4875739;29;20056;-78
2022/11/17 02:38:29;;;;;;;40.65;39.15;;;6.30;92.90;;;;;;4874054;29;20506;-78
2022/11/17 02:41:07;;;;;;;38.13;36.72;;;6.20;92.90;;;;;;4874972;29;20436;-78
2022/11/17 02:44:04;;;;;;;34.85;33.55;;;6.20;93.00;;;;;;4875167;29;20033;-78
2022/11/17 02:46:56;;;;;;;37.03;35.63;;;6.20;92.90;;;;;;4848701;29;20401;-78
2022/11/17 02:49:31;;;;;;;37.50;36.10;;;6.10;92.80;;;;;;4858369;29;20029;-77
2022/11/17 02:51:59;;;;;;;35.40;34.10;;;6.00;92.80;;;;;;4858654;29;20029;-77
2022/11/17 02:54:28;;;;;;;35.35;34.05;;;6.00;92.80;;;;;;4873982;29;20033;-75
2022/11/17 02:56:54;;;;;;;33.72;32.42;;;6.00;92.90;;;;;;4858449;29;20036;-75
2022/11/17 02:59:25;;;;;;;35.08;33.78;;;6.00;92.80;;;;;;4858380;29;20414;-75
2022/11/17 03:02:15;;;;;;;35.83;34.50;;;5.90;92.80;;;;;;4858387;29;20029;-75
2022/11/17 03:05:08;;;;;;;39.97;38.47;;;5.90;92.80;;;;;;4875286;29;20100;-75
2022/11/17 03:07:46;;;;;;;36.40;35.00;;;5.90;92.80;;;;;;4858401;29;20509;-75
2022/11/17 03:10:12;;;;;;;37.25;35.85;;;5.90;92.80;;;;;;4858250;29;20542;-75
2022/11/17 03:13:00;;;;;;;38.28;36.88;;;5.90;92.80;;;;;;4858094;29;20136;-75
2022/11/17 03:15:49;;;;;;;33.85;32.55;;;5.90;92.80;;;;;;4874997;29;20037;-75
2022/11/17 03:18:28;;;;;;;39.17;37.70;;;5.90;92.90;;;;;;4848101;29;20103;-76
2022/11/17 03:21:18;;;;;;;37.60;36.20;;;6.00;92.90;;;;;;4858099;29;20025;-75
2022/11/17 03:23:48;;;;;;;38.83;37.38;;;6.00;92.90;;;;;;4874763;29;20028;-75
2022/11/17 03:26:22;;;;;;;34.03;32.72;;;5.90;92.80;;;;;;4874917;29;20415;-75
2022/11/17 03:28:48;;;;;;;38.90;37.40;;;6.00;92.90;;;;;;4857859;29;20056;-75
2022/11/17 03:31:15;;;;;;;39.30;37.80;;;6.00;93.00;;;;;;4874669;29;20037;-76
2022/11/17 03:33:43;;;;;;;40.22;38.72;;;6.00;92.90;;;;;;4874530;29;20033;-76
2022/11/17 03:36:15;;;;;;;39.50;38.00;;;6.00;92.90;;;;;;4874516;29;20104;-76
2022/11/17 03:38:58;;;;;;;42.85;41.25;;;5.90;92.80;;;;;;4857645;29;20025;-75
2022/11/17 03:41:30;;;;;;;40.65;39.15;;;5.90;92.90;;;;;;4857762;29;20032;-75
2022/11/17 03:43:57;;;;;;;37.05;35.65;;;5.90;92.90;;;;;;4857780;29;20036;-75
2022/11/17 03:46:25;;;;;;;42.45;40.85;;;5.90;93.00;;;;;;4842449;29;20111;-76
2022/11/17 03:48:59;;;;;;;38.20;36.80;;;6.00;93.00;;;;;;4857632;29;20033;-75
2022/11/17 03:51:29;;;;;;;32.92;31.73;;;6.00;93.00;;;;;;4874633;29;20032;-76
2022/11/17 03:53:56;;;;;;;33.80;32.50;;;6.10;93.00;;;;;;4874624;29;20021;-75
2022/11/17 03:56:46;;;;;;;33.90;32.60;;;6.10;93.10;;;;;;4842286;29;20044;-75
2022/11/17 03:59:24;;;;;;;33.50;32.20;;;6.20;93.20;;;;;;4857299;29;20037;-75
2022/11/17 04:01:50;;;;;;;36.78;35.38;;;6.20;93.30;;;;;;4857565;29;20029;-79
2022/11/17 04:04:18;;;;;;;35.53;34.22;;;6.30;93.30;;;;;;4857328;29;20136;-79
2022/11/17 04:06:45;;;;;;;34.28;32.97;;;6.40;93.30;;;;;;4857569;29;20405;-79
2022/11/17 04:09:10;;;;;;;;;;;6.50;93.30;;;;;;4874534;29;20225;-79
2022/11/17 04:17:04;;;;;;;40.30;38.80;;;6.70;93.10;;;;;;4847103;29;20116;-79
2022/11/17 04:19:30;;;;;;;39.53;38.03;;;6.70;93.00;;;;;;4842008;29;20033;-78
2022/11/17 04:21:56;;;;;;;36.33;34.92;;;6.70;92.90;;;;;;4842156;29;20398;-79
2022/11/17 04:24:22;;;;;;;41.97;40.38;;;6.70;93.00;;;;;;4857366;29;20173;-79
2022/11/17 04:29:33;;;;;;;43.28;41.67;;;6.70;92.90;;;;;;4874194;29;20084;-78
2022/11/17 04:31:59;;;;;;;45.40;43.70;;;6.60;92.80;;;;;;4842219;29;20176;-78
2022/11/17 04:34:25;;;;;;;45.75;44.05;;;6.50;92.80;;;;;;4878105;29;20062;-79
2022/11/17 04:36:51;;;;;;;43.55;41.95;;;6.50;92.90;;;;;;4874557;29;20185;-78
2022/11/17 04:39:17;;;;;;;42.47;40.88;;;6.50;93.00;;;;;;4857097;29;20051;-78
2022/11/17 04:42:02;;;;;;;45.28;43.58;;;6.50;93.00;;;;;;4857153;29;20033;-79
2022/11/17 04:44:29;;;;;;;45.90;44.20;;;6.50;93.00;;;;;;4874294;29;20132;-79
2022/11/17 04:46:56;;;;;;;44.80;43.10;;;6.50;93.00;;;;;;4857383;29;20033;-78
2022/11/17 04:49:24;;;;;;;45.85;44.15;;;6.50;93.00;;;;;;4873728;29;20032;-79
2022/11/17 04:51:50;;;;;;;46.13;44.42;;;6.50;93.00;;;;;;4857137;29;20105;-78
2022/11/17 04:54:19;;;;;;;48.55;46.75;;;6.60;93.20;;;;;;4874161;29;20033;-79
2022/11/17 04:56:46;;;;;;;46.40;44.70;;;6.60;93.00;;;;;;4856842;29;20033;-79
2022/11/17 04:59:12;;;;;;;45.72;44.03;;;6.60;93.00;;;;;;4856819;29;20044;-78
2022/11/17 05:01:38;;;;;;;45.75;44.05;;;6.60;93.00;;;;;;4873758;29;20530;-78
2022/11/17 05:04:06;;;;;;;48.75;46.95;;;6.60;93.00;;;;;;4841680;29;20047;-79
2022/11/17 05:06:38;;;;;;;49.05;47.25;;;6.60;93.00;;;;;;4876409;29;20040;-79
2022/11/17 05:09:11;;;;;;;48.83;47.03;;;6.60;92.90;;;;;;4877151;29;20025;-78
2022/11/17 05:14:23;;;;;;;45.97;44.28;;;6.60;93.00;;;;;;4863146;29;20557;-77
2022/11/17 05:17:04;;;;;;;49.00;47.20;;;6.60;93.00;;;;;;4877066;29;20032;-75
2022/11/17 05:19:37;;;;;;;50.85;48.95;;;6.60;93.00;;;;;;4860156;29;20367;-75
2022/11/17 05:23:52;;;;;;;51.25;49.35;;;6.60;93.00;;;;;;4860033;29;20107;-75
2022/11/17 05:24:50;;;;;;;52.45;50.50;;;6.60;93.00;;;;;;4876861;29;20068;-75
2022/11/17 05:27:16;;;;;;;52.38;50.38;;;6.60;92.90;;;;;;4860000;29;20060;-75
2022/11/17 05:29:42;;;;;;;52.22;50.28;;;6.60;93.00;;;;;;4860099;29;20033;-75
2022/11/17 05:32:08;;;;;;;52.28;50.33;;;6.60;93.00;;;;;;4844630;29;20058;-75
2022/11/17 05:34:33;;;;;;;51.63;49.72;;;6.60;93.00;;;;;;4844540;29;20548;-75
2022/11/17 05:36:59;;;;;;;48.75;46.95;;;6.60;93.00;;;;;;4860045;29;20045;-75
2022/11/17 05:39:24;;;;;;;52.08;50.10;;;6.60;93.00;;;;;;4859924;29;20033;-75
2022/11/17 05:41:50;;;;;;;52.70;50.70;;;6.60;93.00;;;;;;4844528;29;20066;-75
2022/11/17 05:44:16;;;;;;;51.20;49.30;;;6.60;93.00;;;;;;4844443;29;20029;-74
2022/11/17 05:46:41;;;;;;;50.05;48.15;;;6.60;93.00;;;;;;4844364;29;20085;-75
2022/11/17 05:49:07;;;;;;;54.20;52.17;;;6.60;93.00;;;;;;4844335;29;20112;-75
2022/11/17 05:51:33;;;;;;;51.45;49.55;;;6.60;93.00;;;;;;4876613;29;20103;-75
2022/11/17 05:53:58;;;;;;;53.40;51.40;;;6.60;93.00;;;;;;4844277;29;20554;-75
2022/11/17 05:56:48;;;;;;;51.85;49.92;;;6.60;93.00;;;;;;4876764;29;20070;-75
2022/11/17 05:59:30;;;;;;;53.50;51.50;;;6.60;93.00;;;;;;4876127;29;20120;-75
2022/11/17 06:02:13;;;;;;;51.60;49.70;;;6.60;93.00;;;;;;4876064;29;20069;-75
2022/11/17 06:04:39;;;;;;;57.38;55.28;;;6.60;93.00;;;;;;4859496;29;20386;-75
2022/11/17 06:07:04;;;;;;;55.47;53.38;;;6.60;93.00;;;;;;4859675;29;20032;-74
2022/11/17 06:09:36;;;;;;;55.72;53.63;;;6.60;93.00;;;;;;4859454;29;20040;-75
2022/11/17 06:12:02;;;;;;;58.92;56.72;;;6.60;93.00;;;;;;4875873;29;20401;-74
2022/11/17 06:14:28;;;;;;;56.00;53.90;;;6.60;93.00;;;;;;4859378;29;20025;-74
2022/11/17 06:17:02;;;;;;;54.85;52.80;;;6.50;93.00;;;;;;4843892;29;20049;-75
2022/11/17 06:19:33;;;;;;;56.58;54.47;;;6.50;93.00;;;;;;4875799;29;20021;-74
2022/11/17 06:21:59;;;;;;;56.17;54.08;;;6.50;93.00;;;;;;4858939;29;20022;-74
2022/11/17 06:24:25;;;;;;;55.83;53.72;;;6.50;93.00;;;;;;4875628;29;20029;-75
2022/11/17 06:26:51;;;;;;;56.17;54.08;;;6.50;93.10;;;;;;4859175;29;20033;-75
2022/11/17 06:29:17;;;;;;;56.03;53.92;;;6.60;93.10;;;;;;4859063;29;20406;-75
2022/11/17 06:31:44;;;;;;;54.15;52.10;;;6.60;93.00;;;;;;4858751;29;20037;-75
2022/11/17 06:34:10;;;;;;;58.08;55.88;;;6.60;93.10;;;;;;4843575;29;20069;-75
2022/11/17 06:36:35;;;;;;;54.75;52.65;;;6.60;93.10;;;;;;4858914;29;20116;-75
2022/11/17 06:39:01;;;;;;;54.30;52.30;;;6.60;93.10;;;;;;4843264;29;20554;-75
2022/11/17 06:41:27;;;;;;;56.70;54.60;;;6.60;93.10;;;;;;4875671;29;20495;-75
2022/11/17 06:43:52;;;;;;;53.38;51.38;;;6.60;93.00;;;;;;4875387;29;20463;-75
2022/11/17 06:46:18;;;;;;;53.70;51.70;;;6.60;93.00;;;;;;4858749;29;20029;-75
2022/11/17 06:48:44;;;;;;;53.97;51.95;;;6.50;93.00;;;;;;4858409;29;20084;-75
2022/11/17 06:51:10;;;;;;;55.10;53.00;;;6.50;93.00;;;;;;4858597;29;20104;-75
2022/11/17 06:53:35;;;;;;;54.00;51.92;;;6.50;93.00;;;;;;4874991;29;20100;-75
2022/11/17 06:56:07;;;;;;;54.67;52.58;;;6.50;93.00;;;;;;4858511;29;20467;-75
2022/11/17 06:58:35;;;;;;;55.85;53.75;;;6.50;93.00;;;;;;4843301;29;20581;-74
2022/11/17 07:01:09;;;;;;;53.42;51.42;;;6.50;93.10;;;;;;4874865;29;20067;-76
2022/11/17 07:03:37;;;;;;;52.28;50.28;;;6.50;93.10;;;;;;4875252;29;20017;-76
2022/11/17 07:06:04;;;;;;;53.65;51.65;;;6.50;93.00;;;;;;4874582;29;20118;-73
2022/11/17 07:08:31;;;;;;;55.75;53.65;;;6.40;93.00;;;;;;4857843;29;20058;-76
2022/11/17 07:11:05;;;;;;;54.65;52.55;;;6.40;93.00;;;;;;4874709;29;20061;-76
2022/11/17 07:13:32;;;;;;;53.83;51.83;;;6.40;93.00;;;;;;4858116;29;20406;-76
2022/11/17 07:16:06;;;;;;;55.38;53.28;;;6.40;93.00;;;;;;4858054;29;20037;-76
2022/11/17 07:18:32;;;;;;;53.80;51.80;;;6.40;93.00;;;;;;4842770;29;20032;-76
2022/11/17 07:21:03;;;;;;;53.03;51.03;;;6.40;93.00;;;;;;4857933;29;20056;-80
2022/11/17 07:23:33;;;;;;;55.28;53.17;;;6.30;93.00;;;;;;4874606;29;20063;-80
2022/11/17 07:25:59;;;;;;;56.83;54.72;;;6.30;93.00;;;;;;4858091;29;20061;-76
2022/11/17 07:28:26;;;;;;;53.40;51.40;;;6.30;93.00;;;;;;4857097;29;20124;-76
2022/11/17 07:30:52;;;;;;;52.05;50.05;;;6.30;93.00;;;;;;4842397;29;20043;-76
2022/11/17 07:33:18;;;;;;;53.47;51.47;;;6.30;93.10;;;;;;4874664;29;20033;-78
2022/11/17 07:35:43;;;;;;;49.08;47.28;;;6.30;93.10;;;;;;4858369;29;20036;-78
2022/11/17 07:38:09;;;;;;;54.38;52.38;;;6.30;93.10;;;;;;4875409;29;20453;-78
2022/11/17 07:40:35;;;;;;;49.20;47.38;;;6.30;93.10;;;;;;4874235;29;20064;-76
2022/11/17 07:43:01;;;;;;;47.60;45.80;;;6.30;93.10;;;;;;4842248;29;20033;-76
2022/11/17 07:45:27;;;;;;;44.55;42.85;;;6.30;93.20;;;;;;4842007;29;20037;-76
2022/11/17 07:48:01;;;;;;;48.20;46.40;;;6.30;93.20;;;;;;4857216;29;20640;-76
2022/11/17 07:50:27;;;;;;;51.63;49.72;;;6.40;93.20;;;;;;4842125;29;20048;-76
2022/11/17 07:52:55;;;;;;;49.85;47.95;;;6.40;93.10;;;;;;4842005;29;20033;-76
2022/11/17 07:55:22;;;;;;;50.92;49.03;;;6.40;93.00;;;;;;4841920;29;20511;-73
2022/11/17 07:57:57;;;;;;;51.50;49.58;;;6.40;93.00;;;;;;4873855;29;20501;-79
2022/11/17 08:00:24;;;;;;;49.28;47.38;;;6.40;93.00;;;;;;4856989;29;20032;-79
2022/11/17 08:02:49;;;;;;;53.08;51.08;;;6.40;93.10;;;;;;4857315;29;20375;-78
2022/11/17 08:05:18;;;;;;;52.47;50.47;;;6.40;93.00;;;;;;4856813;29;20033;-80
2022/11/17 08:07:44;;;;;;;51.05;49.15;;;6.30;93.00;;;;;;4856925;29;20037;-79
2022/11/17 08:10:11;;;;;;;50.50;48.60;;;6.30;93.00;;;;;;4857020;29;20037;-80
2022/11/17 08:12:37;;;;;;;52.55;50.55;;;6.30;93.00;;;;;;4873782;29;20132;-79
2022/11/17 08:15:03;;;;;;;53.20;51.20;;;6.20;93.00;;;;;;4857285;29;20205;-79
2022/11/17 08:17:30;;;;;;;53.42;51.42;;;6.20;92.90;;;;;;4873660;29;20372;-80
2022/11/17 08:19:56;;;;;;;55.58;53.47;;;6.10;92.90;;;;;;4841986;29;20053;-78
2022/11/17 08:22:22;;;;;;;53.55;51.55;;;6.10;93.00;;;;;;4856419;29;20065;-77
2022/11/17 08:24:48;;;;;;;51.20;49.20;;;6.00;93.00;;;;;;4856835;29;20033;-77
2022/11/17 08:27:13;;;;;;;51.25;49.25;;;6.10;93.10;;;;;;4857095;29;20026;-78
2022/11/17 08:29:39;;;;;;;51.22;49.25;;;6.10;93.20;;;;;;4873290;29;20049;-78
2022/11/17 08:32:05;;;;;;;52.78;50.78;;;6.20;93.10;;;;;;4856406;29;20097;-78
2022/11/17 08:34:30;;;;;;;47.65;45.85;;;6.20;93.10;;;;;;4873281;29;20070;-78
2022/11/17 08:36:56;;;;;;;51.30;49.30;;;6.20;93.10;;;;;;4856599;29;20029;-78
2022/11/17 08:39:22;;;;;;;52.60;50.60;;;6.30;93.20;;;;;;4827151;29;20033;-78
2022/11/17 08:41:49;;;;;;;53.90;51.80;;;6.30;93.10;;;;;;4860072;29;20077;-78
2022/11/17 08:44:15;;;;;;;49.42;47.53;;;6.40;93.10;;;;;;4859875;29;20586;-77
2022/11/17 08:46:41;;;;;;;51.45;49.45;;;6.40;93.00;;;;;;4845076;29;20149;-77
2022/11/17 08:49:06;;;;;;;50.70;48.72;;;6.40;93.10;;;;;;4876408;29;20438;-78
2022/11/17 08:51:32;;;;;;;50.10;48.20;;;6.50;93.10;;;;;;4876741;29;20393;-77
2022/11/17 08:53:57;;;;;;;54.50;52.40;;;6.50;93.20;;;;;;4876743;29;20036;-78
2022/11/17 08:56:23;;;;;;;51.00;49.00;;;6.50;93.20;;;;;;4859827;29;20089;-77
2022/11/17 08:58:49;;;;;;;54.45;52.35;;;6.60;93.20;;;;;;4859683;29;20067;-77
2022/11/17 09:01:15;;;;;;;51.67;49.67;;;6.70;93.20;;;;;;4859228;29;20486;-77
2022/11/17 09:03:44;;;;;;;51.92;49.92;;;6.70;93.20;;;;;;4853168;29;20040;-78
2022/11/17 09:06:11;;;;;;;50.20;48.30;;;6.80;93.10;;;;;;4859871;29;20029;-78
2022/11/17 09:08:37;;;;;;;50.20;48.30;;;6.90;93.10;;;;;;4852288;29;20394;-77
2022/11/17 09:11:07;;;;;;;50.70;48.80;;;6.90;93.10;;;;;;4866728;29;20030;-78
2022/11/17 09:13:34;;;;;;;45.42;43.72;;;7.00;93.20;;;;;;4870035;29;20812;-78
2022/11/17 09:16:03;;;;;;;;;;;7.10;93.30;;;;;;4869933;29;20047;-78
2022/11/17 09:18:29;;;;;;;47.90;46.03;;;7.10;93.30;;;;;;4851747;29;19912;-77
2022/11/17 09:21:03;;;;;;;46.08;44.28;;;7.30;93.30;;;;;;4867566;29;20025;-77
2022/11/17 09:23:30;;;;;;;45.70;43.95;;;7.30;93.30;;;;;;4852269;29;20029;-77
2022/11/17 09:25:56;;;;;;;47.45;45.65;;;7.40;93.20;;;;;;4850902;29;20037;-77
2022/11/17 09:28:25;;;;;;;;;;;7.40;93.20;;;;;;4852688;29;20092;-78
2022/11/17 09:30:52;;;;;;;46.03;44.22;;;7.50;93.30;;;;;;4866462;29;19915;-78
2022/11/17 09:33:18;;;;;;;45.53;43.78;;;7.50;93.20;;;;;;4833976;29;20033;-78
2022/11/17 09:35:44;;;;;;;45.40;43.65;;;7.50;93.10;;;;;;4834267;29;20503;-78
2022/11/17 09:38:10;;;;;;;42.55;40.95;;;7.50;93.00;;;;;;4853979;29;20045;-77
2022/11/17 09:40:39;;;;;;;48.40;46.55;;;7.50;93.20;;;;;;4868935;29;20021;-78
2022/11/17 09:43:15;;;;;;;43.78;42.08;;;7.50;93.30;;;;;;4852516;29;20069;-79
2022/11/17 09:45:42;;;;;;;43.90;42.20;;;7.50;93.30;;;;;;4866459;29;20495;-78
2022/11/17 09:48:25;;;;;;;39.08;37.58;;;7.70;93.30;;;;;;4867959;29;20387;-79
2022/11/17 09:50:56;;;;;;;43.97;42.28;;;7.70;93.30;;;;;;4871135;29;20072;-79
2022/11/17 09:53:52;;;;;;;44.55;42.85;;;7.70;93.30;;;;;;4869281;29;20509;-78
2022/11/17 09:56:18;;;;;;;44.72;43.03;;;7.70;93.30;;;;;;4852491;29;20123;-78
2022/11/17 09:58:53;;;;;;;39.50;38.00;;;7.70;93.10;;;;;;4851694;29;20025;-78
2022/11/17 10:01:20;;;;;;;35.90;34.50;;;7.80;93.20;;;;;;4866624;29;20064;-79
2022/11/17 10:03:48;;;;;;;37.75;36.30;;;7.90;93.40;;;;;;4834670;29;20032;-78
2022/11/17 10:06:23;;;;;;;40.15;38.65;;;8.00;93.40;;;;;;4861819;29;20042;-78
2022/11/17 10:09:16;;;;;;;39.03;37.53;;;8.00;93.30;;;;;;4851838;29;20049;-77
2022/11/17 10:11:44;;;;;;;38.67;37.17;;;8.00;93.30;;;;;;4854715;29;20111;-80
2022/11/17 10:14:13;;;;;;;44.95;43.25;;;8.00;93.30;;;;;;4842382;29;20037;-78
2022/11/17 10:16:51;;;;;;;40.58;38.97;;;8.10;93.20;;;;;;4857448;29;20054;-77
2022/11/17 10:19:19;;;;;;;41.72;40.13;;;8.10;93.30;;;;;;4858346;29;20455;-77
2022/11/17 10:21:49;;;;;;;40.28;38.78;;;8.00;93.20;;;;;;4842398;29;20112;-77
2022/11/17 10:24:33;;;;;;;40.00;38.50;;;8.00;93.20;;;;;;4842014;29;20026;-78
2022/11/17 10:27:03;;;;;;;39.00;37.50;;;8.10;93.30;;;;;;4854779;29;20057;-78
2022/11/17 10:29:29;;;;;;;38.67;37.17;;;8.10;93.40;;;;;;4877214;29;20043;-79
2022/11/17 10:31:54;;;;;;;39.30;37.80;;;8.30;93.50;;;;;;4877053;29;20116;-77
2022/11/17 10:34:40;;;;;;;38.10;36.63;;;8.30;93.50;;;;;;4856893;29;20045;-78
2022/11/17 10:37:12;;;;;;;33.92;32.63;;;8.40;93.50;;;;;;4859574;29;20041;-77
2022/11/17 10:39:40;;;;;;;38.38;36.88;;;8.40;93.40;;;;;;4860081;29;20037;-78
2022/11/17 10:42:19;;;;;;;38.13;36.65;;;8.50;93.50;;;;;;4855660;29;20040;-78
2022/11/17 10:44:55;;;;;;;38.75;37.25;;;8.70;93.50;;;;;;4860236;29;20068;-78
2022/11/17 10:47:30;;;;;;;34.50;33.15;;;8.70;93.40;;;;;;4860299;29;20029;-79
2022/11/17 10:50:22;;;;;;;33.83;32.53;;;8.70;93.30;;;;;;4876779;29;20028;-79
2022/11/17 10:52:50;;;;;;;35.10;33.78;;;8.80;93.40;;;;;;4860880;29;20030;-79
2022/11/17 10:55:28;;;;;;;32.78;31.48;;;8.90;93.50;;;;;;4862093;29;20350;-77
2022/11/17 10:58:19;;;;;;;29.52;28.38;;;8.90;93.60;;;;;;4843016;29;20072;-79
2022/11/17 11:00:52;;;;;;;30.63;29.42;;;9.10;93.60;;;;;;4858184;29;20041;-79
2022/11/17 11:03:21;;;;;;;31.48;30.27;;;9.20;93.60;;;;;;4870862;29;20077;-82
2022/11/17 11:06:02;;;;;;;30.63;29.42;;;9.20;93.50;;;;;;4860403;29;20455;-77
2022/11/17 11:08:42;;;;;;;34.03;32.72;;;9.30;93.60;;;;;;4878289;29;20033;-76
2022/11/17 11:11:19;;;;;;;33.78;32.47;;;9.30;93.50;;;;;;4859719;29;20587;-77
2022/11/17 11:13:55;;;;;;;31.25;30.05;;;9.30;93.50;;;;;;4877579;29;20060;-79
2022/11/17 11:16:21;;;;;;;35.63;34.25;;;9.30;93.50;;;;;;4860227;29;20037;-76
2022/11/17 11:18:48;;;;;;;;;;;9.30;93.40;;;;;;4877140;29;20037;-75
2022/11/17 11:21:31;;;;;;;34.70;33.40;;;9.30;93.40;;;;;;4876952;29;19915;-79
2022/11/17 11:24:12;;;;;;;36.80;35.40;;;9.30;93.50;;;;;;5066597;28;20376;-81
2022/11/17 11:26:53;;;;;;;33.58;32.28;;;9.30;93.40;;;;;;5065556;28;20090;-78
2022/11/17 11:29:43;;;;;;;30.05;28.88;;;9.30;93.50;;;;;;5066988;28;20051;-78
2022/11/17 11:32:12;;;;;;;33.95;32.65;;;9.30;93.50;;;;;;5066735;28;20387;-80
2022/11/17 11:34:49;;;;;;;30.80;29.60;;;9.40;93.70;;;;;;5067256;28;20572;-77
2022/11/17 11:37:16;;;;;;;29.55;28.45;;;9.60;93.80;;;;;;5067197;28;20025;-81
2022/11/17 11:40:13;;;;;;;29.27;28.17;;;9.70;93.70;;;;;;5066311;28;20028;-80
2022/11/17 11:42:54;;;;;;;27.75;26.65;;;9.70;93.70;;;;;;5066785;28;20060;-77
2022/11/17 11:45:28;;;;;;;29.40;28.30;;;9.80;93.70;;;;;;5069622;28;20055;-80
2022/11/17 11:48:30;;;;;;;31.17;29.98;;;9.90;93.60;;;;;;5068226;28;20020;-78
2022/11/17 11:51:10;;;;;;;29.13;28.02;;;9.90;93.60;;;;;;5066813;28;20115;-81
2022/11/17 11:54:13;;;;;;;28.30;27.20;;;9.90;93.70;;;;;;5066058;28;20069;-80
2022/11/17 11:56:43;;;;;;;28.63;27.52;;;10.00;93.80;;;;;;5067248;28;20033;-79
2022/11/17 11:59:18;;;;;;;34.00;32.70;;;10.10;93.70;;;;;;5067565;28;20095;-78
2022/11/17 12:01:55;;;;;;;27.00;25.98;;;10.00;93.60;;;;;;5066090;28;20028;-75
2022/11/17 12:04:38;;;;;;;;;;;10.00;93.60;;;;;;5062389;28;20017;-78
2022/11/17 12:07:13;;;;;;;25.60;24.60;;;10.10;93.70;;;;;;5061655;28;19909;-78
2022/11/17 12:09:42;;;;;;;25.65;24.65;;;10.10;93.80;;;;;;5043684;28;20034;-78
2022/11/17 12:12:14;;;;;;;27.48;26.38;;;10.20;93.80;;;;;;5044173;28;20124;-79
2022/11/17 12:15:05;;;;;;;28.45;27.35;;;10.30;93.80;;;;;;5045141;28;20039;-85
2022/11/17 12:17:31;;;;;;;28.92;27.83;;;10.30;93.70;;;;;;5046974;28;20033;-85
2022/11/17 12:20:02;;;;;;;27.92;26.83;;;10.40;93.70;;;;;;5045244;28;20036;-84
2022/11/17 12:22:28;;;;;;;25.27;24.27;;;10.40;93.70;;;;;;5044273;28;20514;-81
2022/11/17 12:25:26;;;;;;;24.83;23.83;;;10.40;93.70;;;;;;5044322;28;20025;-80
2022/11/17 12:27:53;;;;;;;27.90;26.80;;;10.40;93.70;;;;;;5052088;28;20076;-79
2022/11/17 12:30:35;;;;;;;29.95;28.83;;;10.40;93.60;;;;;;5058926;28;20025;-81
2022/11/17 12:33:07;;;;;;;26.88;25.88;;;10.30;93.50;;;;;;5064162;28;20035;-79
2022/11/17 12:35:35;;;;;;;25.88;24.88;;;10.20;93.50;;;;;;5030233;28;20027;-81
2022/11/17 12:38:16;;;;;;;27.95;26.85;;;10.20;93.60;;;;;;5032735;28;20102;-78
2022/11/17 12:40:48;;;;;;;29.50;28.40;;;10.10;93.70;;;;;;5030859;28;20025;-81
2022/11/17 12:43:14;;;;;;;32.75;31.55;;;10.10;93.50;;;;;;5030403;28;20025;-77
2022/11/17 12:45:58;;;;;;;32.45;31.25;;;10.00;93.50;;;;;;5031992;28;20362;-78
2022/11/17 12:48:34;;;;;;;35.28;33.97;;;9.90;93.50;;;;;;5031761;28;20021;-78
2022/11/17 12:51:15;;;;;;;;;;;9.90;93.60;;;;;;5032279;28;20084;-81
2022/11/17 12:53:56;;;;;;;29.20;28.10;;;9.90;93.60;;;;;;5030273;28;19905;-80
2022/11/17 12:56:37;;;;;;;32.38;31.17;;;9.90;93.70;;;;;;5032505;28;20053;-75
2022/11/17 12:59:14;;;;;;;30.63;29.45;;;9.90;93.70;;;;;;5031571;28;20033;-73
2022/11/17 13:02:04;;;;;;;31.42;30.23;;;10.00;93.70;;;;;;5030366;28;20029;-76
2022/11/17 13:04:44;;;;;;;30.42;29.23;;;10.00;93.70;;;;;;5030742;28;20026;-82
2022/11/17 13:07:22;;;;;;;28.40;27.30;;;10.00;93.70;;;;;;5031375;28;20021;-82
2022/11/17 13:09:56;;;;;;;34.80;33.50;;;10.00;93.80;;;;;;5031836;28;20017;-79
2022/11/17 13:12:30;;;;;;;34.10;32.80;;;10.00;93.70;;;;;;5029441;28;20040;-79
2022/11/17 13:15:04;;;;;;;30.90;29.70;;;9.90;93.60;;;;;;5030847;28;20524;-80
2022/11/17 13:17:29;;;;;;;33.13;31.83;;;9.90;93.60;;;;;;5030889;28;20065;-78
2022/11/17 13:20:15;;;;;;;32.30;31.10;;;9.90;93.70;;;;;;5031757;28;20484;-81
2022/11/17 13:22:41;;;;;;;35.63;34.33;;;9.90;93.60;;;;;;5039311;28;20112;-79